Time;durP1;ratioP1;P1;durP2;ratioP2;P2;SDS_P1;SDS_P2;PMS_P1;PMS_P2;Temp;Humidity;BMP_temperature;BMP_pressure;BME280_temperature;BME280_humidity;BME280_pressure;Samples;Min_cycle;Max_cycle;Signal;HPM_P1;HPM_P2
2023/06/18 00:00:11;;;;;;;29.60;25.42;;;14.50;99.90;;;;;;5115382;27;20100;-38
2023/06/18 00:02:36;;;;;;;32.60;29.25;;;14.50;99.90;;;;;;5097198;27;20093;-37
2023/06/18 00:05:02;;;;;;;31.23;28.02;;;14.50;99.90;;;;;;5115592;27;20122;-38
2023/06/18 00:07:28;;;;;;;35.13;31.55;;;14.40;99.90;;;;;;5115264;27;20042;-37
2023/06/18 00:09:53;;;;;;;34.92;31.15;;;14.40;99.90;;;;;;5115855;27;20043;-37
2023/06/18 00:12:19;;;;;;;36.63;32.45;;;14.40;99.90;;;;;;5115873;27;20074;-37
2023/06/18 00:14:45;;;;;;;36.58;32.90;;;14.40;99.90;;;;;;5116123;27;20434;-37
2023/06/18 00:17:11;;;;;;;37.03;33.25;;;14.40;99.90;;;;;;5096162;27;20047;-38
2023/06/18 00:19:37;;;;;;;36.65;32.40;;;14.40;99.90;;;;;;5115538;27;20055;-38
2023/06/18 00:22:02;;;;;;;37.20;32.72;;;14.40;99.90;;;;;;5115662;27;20055;-38
2023/06/18 00:24:28;;;;;;;36.40;32.58;;;14.50;99.90;;;;;;5114457;27;20493;-37
2023/06/18 00:26:54;;;;;;;34.05;30.48;;;14.50;99.90;;;;;;5115003;27;20129;-37
2023/06/18 00:29:20;;;;;;;36.08;31.52;;;14.50;99.90;;;;;;5114719;27;20108;-38
2023/06/18 00:31:45;;;;;;;35.97;32.20;;;14.50;99.90;;;;;;5096406;27;20054;-37
2023/06/18 00:34:14;;;;;;;37.80;33.80;;;14.60;99.90;;;;;;5109551;27;20039;-38
2023/06/18 00:36:43;;;;;;;41.65;34.95;;;14.60;99.90;;;;;;5116596;27;20043;-37
2023/06/18 00:39:12;;;;;;;38.38;34.38;;;14.50;99.90;;;;;;5115424;27;20039;-37
2023/06/18 00:41:38;;;;;;;33.15;29.83;;;14.50;99.90;;;;;;5114235;27;20130;-37
2023/06/18 00:44:08;;;;;;;31.70;28.48;;;14.50;99.90;;;;;;5110351;27;20042;-37
2023/06/18 00:46:36;;;;;;;31.30;28.15;;;14.50;99.90;;;;;;5134985;27;20429;-37
2023/06/18 00:49:02;;;;;;;32.83;29.63;;;14.50;99.90;;;;;;5102648;27;20046;-38
2023/06/18 00:51:28;;;;;;;32.58;29.13;;;14.40;99.90;;;;;;5102769;27;20058;-37
2023/06/18 00:53:56;;;;;;;34.42;30.85;;;14.40;99.90;;;;;;5112670;27;20408;-38
2023/06/18 00:56:25;;;;;;;37.47;33.70;;;14.40;99.90;;;;;;5114525;27;20047;-37
2023/06/18 00:58:51;;;;;;;37.95;33.67;;;14.40;99.90;;;;;;5096564;27;20047;-37
2023/06/18 01:01:17;;;;;;;31.88;28.58;;;14.40;99.90;;;;;;5113670;27;20141;-37
2023/06/18 01:03:47;;;;;;;35.85;32.00;;;14.40;99.90;;;;;;5115001;27;20428;-37
2023/06/18 01:06:17;;;;;;;39.28;35.05;;;14.30;99.90;;;;;;5114557;28;20066;-38
2023/06/18 01:08:48;;;;;;;40.40;36.00;;;14.30;99.90;;;;;;5114946;27;20490;-37
2023/06/18 01:11:18;;;;;;;39.83;35.63;;;14.30;99.90;;;;;;5114678;27;20108;-37
2023/06/18 01:13:44;;;;;;;40.90;35.90;;;14.30;99.90;;;;;;5114287;28;20074;-37
2023/06/18 01:16:13;;;;;;;38.33;34.20;;;14.30;99.90;;;;;;5113728;27;20093;-37
2023/06/18 01:18:46;;;;;;;37.83;33.45;;;14.30;99.90;;;;;;5096461;28;20039;-37
2023/06/18 01:21:19;;;;;;;39.78;34.95;;;14.30;99.90;;;;;;5095529;28;20050;-37
2023/06/18 01:24:19;;;;;;;39.08;34.50;;;14.20;99.90;;;;;;5114905;27;20126;-37
2023/06/18 01:26:46;;;;;;;37.80;33.78;;;14.20;99.90;;;;;;5114524;27;20126;-37
2023/06/18 01:29:12;;;;;;;37.63;33.63;;;14.10;99.90;;;;;;5114206;27;20043;-37
2023/06/18 01:31:42;;;;;;;36.22;32.38;;;14.10;99.90;;;;;;5114410;28;20047;-37
2023/06/18 01:34:08;;;;;;;40.85;33.08;;;14.10;99.90;;;;;;5110105;27;20032;-37
2023/06/18 01:36:37;;;;;;;35.33;31.27;;;14.10;99.90;;;;;;5099683;27;20126;-37
2023/06/18 01:39:17;;;;;;;37.50;33.60;;;14.10;99.90;;;;;;5130554;27;20051;-37
2023/06/18 01:41:48;;;;;;;38.85;34.97;;;14.10;99.90;;;;;;5099584;27;20046;-37
2023/06/18 01:44:19;;;;;;;31.20;28.10;;;14.10;99.90;;;;;;5090694;27;20419;-37
2023/06/18 01:46:45;;;;;;;30.33;26.55;;;14.10;99.90;;;;;;5094349;27;20039;-37
2023/06/18 01:49:12;;;;;;;27.67;24.77;;;14.10;99.90;;;;;;5107552;27;20043;-37
2023/06/18 01:51:39;;;;;;;23.45;21.15;;;14.10;99.90;;;;;;5138894;27;20923;-37
2023/06/18 01:54:07;;;;;;;22.42;20.30;;;14.00;99.90;;;;;;5103205;27;20085;-37
2023/06/18 01:56:33;;;;;;;18.90;17.20;;;13.90;99.90;;;;;;5137987;27;20578;-37
2023/06/18 01:59:01;;;;;;;19.23;17.23;;;13.80;99.90;;;;;;5138509;27;20034;-38
2023/06/18 02:01:30;;;;;;;105.07;24.73;;;13.70;99.90;;;;;;5135922;27;20050;-38
2023/06/18 02:03:56;;;;;;;32.22;25.30;;;13.60;99.90;;;;;;5117951;27;20043;-37
2023/06/18 02:06:21;;;;;;;25.63;23.17;;;13.50;99.90;;;;;;5099023;27;20058;-37
2023/06/18 02:08:47;;;;;;;97.28;25.33;;;13.40;99.90;;;;;;5118409;27;20473;-37
2023/06/18 02:11:13;;;;;;;92.93;27.60;;;13.40;99.90;;;;;;5117463;27;20524;-37
2023/06/18 02:13:38;;;;;;;63.08;21.52;;;13.30;99.90;;;;;;5118496;27;20968;-37
2023/06/18 02:16:04;;;;;;;24.08;21.55;;;13.20;99.90;;;;;;5117701;27;20314;-37
2023/06/18 02:18:30;;;;;;;44.97;22.75;;;13.10;99.90;;;;;;5118148;27;20070;-37
2023/06/18 02:20:55;;;;;;;36.95;23.17;;;13.10;99.90;;;;;;5117575;27;20047;-37
2023/06/18 02:23:22;;;;;;;28.40;25.50;;;13.00;99.90;;;;;;5117660;27;20042;-37
2023/06/18 02:25:48;;;;;;;27.90;25.10;;;13.00;99.90;;;;;;5130606;27;20046;-37
2023/06/18 02:28:13;;;;;;;35.97;32.00;;;13.10;99.90;;;;;;5117704;27;20039;-37
2023/06/18 02:30:39;;;;;;;32.30;28.98;;;13.20;99.90;;;;;;5099080;27;20313;-37
2023/06/18 02:33:06;;;;;;;35.67;31.83;;;13.20;99.90;;;;;;5117200;27;20043;-37
2023/06/18 02:35:32;;;;;;;30.70;27.73;;;13.20;99.90;;;;;;5103972;27;20063;-37
2023/06/18 02:37:58;;;;;;;32.95;29.45;;;13.20;99.90;;;;;;5128360;27;20078;-37
2023/06/18 02:40:23;;;;;;;27.25;24.30;;;13.30;99.90;;;;;;5111048;27;20150;-38
2023/06/18 02:42:50;;;;;;;30.05;26.85;;;13.30;99.90;;;;;;5094278;28;20464;-37
2023/06/18 02:45:17;;;;;;;32.97;27.98;;;13.30;99.90;;;;;;5093555;27;20047;-37
2023/06/18 02:47:44;;;;;;;35.10;31.50;;;13.30;99.90;;;;;;5116263;27;20043;-37
2023/06/18 02:50:11;;;;;;;36.05;32.30;;;13.40;99.90;;;;;;5086958;27;20052;-37
2023/06/18 02:52:38;;;;;;;36.40;32.00;;;13.40;99.90;;;;;;5137635;27;20095;-38
2023/06/18 02:55:05;;;;;;;43.60;37.15;;;13.50;99.90;;;;;;5119556;27;20039;-37
2023/06/18 02:57:31;;;;;;;40.08;35.95;;;13.50;99.90;;;;;;5138276;27;20066;-37
2023/06/18 02:59:57;;;;;;;44.15;37.80;;;13.50;99.90;;;;;;5138014;27;20133;-37
2023/06/18 03:02:23;;;;;;;45.70;38.42;;;13.50;99.90;;;;;;5137290;27;20041;-37
2023/06/18 03:04:49;;;;;;;43.17;38.58;;;13.60;99.90;;;;;;5118806;27;20417;-37
2023/06/18 03:07:15;;;;;;;43.67;38.45;;;13.60;99.90;;;;;;5112983;27;20047;-37
2023/06/18 03:09:41;;;;;;;43.30;38.05;;;13.60;99.90;;;;;;5134161;27;20380;-37
2023/06/18 03:12:07;;;;;;;40.30;36.00;;;13.70;99.90;;;;;;5137762;27;20771;-38
2023/06/18 03:14:32;;;;;;;47.38;39.10;;;13.70;99.90;;;;;;5118303;27;20531;-37
2023/06/18 03:16:58;;;;;;;42.22;37.65;;;13.80;99.90;;;;;;5126274;27;20507;-37
2023/06/18 03:19:23;;;;;;;43.05;37.00;;;13.80;99.90;;;;;;5116346;27;20035;-37
2023/06/18 03:21:49;;;;;;;42.03;37.45;;;13.80;99.90;;;;;;5116404;27;20039;-37
2023/06/18 03:24:15;;;;;;;37.70;33.75;;;13.90;99.90;;;;;;5117151;27;20047;-37
2023/06/18 03:26:41;;;;;;;30.45;27.27;;;13.90;99.90;;;;;;5115983;27;20109;-37
2023/06/18 03:29:07;;;;;;;27.73;24.83;;;14.00;99.90;;;;;;5116379;27;20544;-38
2023/06/18 03:31:34;;;;;;;30.95;27.90;;;13.90;99.90;;;;;;5097488;27;20039;-37
2023/06/18 03:34:01;;;;;;;36.22;32.33;;;14.00;99.90;;;;;;5127746;27;20230;-37
2023/06/18 03:36:28;;;;;;;35.83;32.13;;;14.00;99.90;;;;;;5104998;27;20062;-37
2023/06/18 03:38:55;;;;;;;37.17;32.53;;;14.10;99.90;;;;;;5095139;27;20058;-37
2023/06/18 03:41:22;;;;;;;35.47;31.75;;;14.20;99.90;;;;;;5094274;27;20086;-38
2023/06/18 03:43:47;;;;;;;35.00;31.40;;;14.30;99.90;;;;;;5084725;27;20042;-37
2023/06/18 03:46:13;;;;;;;38.10;33.78;;;14.40;99.90;;;;;;5115170;27;20121;-37
2023/06/18 03:48:41;;;;;;;38.78;34.55;;;14.60;99.90;;;;;;5116068;27;20039;-37
2023/06/18 03:51:06;;;;;;;35.88;32.15;;;15.00;99.90;;;;;;5126326;27;20046;-37
2023/06/18 03:53:36;;;;;;;36.15;32.45;;;15.30;99.90;;;;;;5137089;27;20050;-37
2023/06/18 03:56:03;;;;;;;37.15;33.30;;;15.70;99.90;;;;;;5136048;27;20125;-38
2023/06/18 03:58:30;;;;;;;38.70;34.58;;;16.00;99.90;;;;;;5136078;27;20062;-38
2023/06/18 04:00:56;;;;;;;37.85;34.00;;;16.20;99.90;;;;;;5135542;27;20051;-38
2023/06/18 04:03:22;;;;;;;39.50;35.50;;;16.30;99.90;;;;;;5112361;27;20047;-38
2023/06/18 04:05:49;;;;;;;40.60;35.92;;;16.40;99.90;;;;;;5114890;27;20051;-38
2023/06/18 04:08:19;;;;;;;37.70;33.95;;;16.50;99.90;;;;;;5097325;27;20126;-38
2023/06/18 04:10:47;;;;;;;40.85;36.83;;;16.40;99.90;;;;;;5115421;27;20047;-37
2023/06/18 04:13:19;;;;;;;40.70;36.80;;;16.40;99.90;;;;;;5096826;27;20054;-39
2023/06/18 04:15:45;;;;;;;38.08;34.25;;;16.40;99.90;;;;;;5114767;27;20054;-38
2023/06/18 04:18:11;;;;;;;38.05;34.25;;;16.40;99.90;;;;;;5115142;27;20074;-38
2023/06/18 04:20:37;;;;;;;39.95;35.92;;;16.60;99.90;;;;;;5114653;27;20133;-38
2023/06/18 04:23:02;;;;;;;39.00;34.97;;;16.60;99.90;;;;;;5114317;27;20397;-38
2023/06/18 04:25:28;;;;;;;38.25;34.22;;;16.60;99.90;;;;;;5114120;27;20577;-37
2023/06/18 04:27:54;;;;;;;39.92;35.78;;;16.70;99.90;;;;;;5115178;27;20512;-38
2023/06/18 04:30:20;;;;;;;40.30;36.13;;;16.60;99.90;;;;;;5114958;27;20053;-38
2023/06/18 04:32:45;;;;;;;40.28;36.15;;;16.50;99.90;;;;;;5115165;27;20035;-38
2023/06/18 04:35:11;;;;;;;41.45;37.08;;;16.50;99.90;;;;;;5101773;27;20213;-38
2023/06/18 04:37:37;;;;;;;39.25;35.35;;;16.50;99.90;;;;;;5132117;27;20149;-38
2023/06/18 04:40:05;;;;;;;43.30;36.92;;;16.60;99.90;;;;;;5122825;27;20116;-38
2023/06/18 04:42:30;;;;;;;40.33;36.30;;;16.70;99.90;;;;;;5094250;27;20039;-38
2023/06/18 04:44:56;;;;;;;39.15;35.20;;;16.90;99.90;;;;;;5106805;27;20346;-38
2023/06/18 04:47:22;;;;;;;39.63;35.67;;;17.00;99.90;;;;;;5114297;27;20118;-38
2023/06/18 04:49:47;;;;;;;39.08;35.28;;;17.20;99.90;;;;;;5114670;27;20045;-38
2023/06/18 04:52:14;;;;;;;37.90;34.08;;;17.30;99.90;;;;;;5114163;27;20051;-38
2023/06/18 04:54:41;;;;;;;39.33;35.53;;;17.30;99.90;;;;;;5127728;27;20455;-38
2023/06/18 04:57:06;;;;;;;40.25;36.03;;;17.60;99.90;;;;;;5134241;27;20377;-38
2023/06/18 04:59:34;;;;;;;37.60;33.97;;;17.80;99.90;;;;;;5135435;27;20434;-38
2023/06/18 05:02:00;;;;;;;40.38;36.25;;;18.00;99.90;;;;;;5134286;27;20520;-38
2023/06/18 05:04:26;;;;;;;40.35;36.08;;;18.10;99.90;;;;;;5135362;27;20142;-38
2023/06/18 05:06:51;;;;;;;41.20;37.08;;;18.40;99.90;;;;;;5134399;27;20042;-38
2023/06/18 05:09:18;;;;;;;40.20;36.22;;;18.80;99.90;;;;;;5135296;27;20058;-38
2023/06/18 05:11:44;;;;;;;40.10;36.10;;;19.40;99.90;;;;;;5109642;28;20100;-39
2023/06/18 05:14:10;;;;;;;35.70;32.03;;;19.90;99.90;;;;;;5115058;27;20062;-38
2023/06/18 05:16:35;;;;;;;39.50;35.65;;;20.20;99.90;;;;;;5114413;27;20165;-38
2023/06/18 05:19:01;;;;;;;39.72;35.58;;;20.70;99.90;;;;;;5114353;27;20047;-38
2023/06/18 05:21:27;;;;;;;38.38;34.67;;;21.20;99.90;;;;;;5113416;27;20096;-38
2023/06/18 05:23:53;;;;;;;37.55;34.05;;;21.50;99.90;;;;;;5114016;27;20553;-38
2023/06/18 05:26:20;;;;;;;39.63;35.42;;;21.70;99.90;;;;;;5113787;27;20552;-39
2023/06/18 05:28:46;;;;;;;37.72;34.03;;;21.90;99.90;;;;;;5096436;27;20473;-39
2023/06/18 05:31:12;;;;;;;40.00;36.10;;;22.20;99.90;;;;;;5114239;27;20135;-39
2023/06/18 05:33:38;;;;;;;37.25;33.72;;;22.40;99.90;;;;;;5114378;27;20165;-38
2023/06/18 05:36:03;;;;;;;40.88;36.75;;;22.30;99.90;;;;;;5105826;27;20376;-39
2023/06/18 05:38:29;;;;;;;37.35;33.70;;;21.90;99.90;;;;;;5120558;27;20443;-38
2023/06/18 05:40:55;;;;;;;37.85;34.10;;;21.50;99.90;;;;;;5088264;27;20533;-39
2023/06/18 05:43:20;;;;;;;39.83;36.00;;;21.10;99.90;;;;;;5106449;27;20060;-38
2023/06/18 05:45:46;;;;;;;38.75;34.80;;;20.50;99.90;;;;;;5113731;27;20096;-38
2023/06/18 05:48:14;;;;;;;39.55;35.67;;;20.20;99.90;;;;;;5114516;27;20043;-38
2023/06/18 05:50:40;;;;;;;39.42;35.35;;;19.80;99.90;;;;;;5095175;28;20498;-38
2023/06/18 05:53:06;;;;;;;40.42;36.42;;;19.60;99.90;;;;;;5095456;28;20076;-39
2023/06/18 05:55:31;;;;;;;39.33;35.45;;;19.60;99.90;;;;;;5113228;27;20046;-38
2023/06/18 05:57:57;;;;;;;37.78;33.97;;;19.60;99.90;;;;;;5114080;28;20066;-38
2023/06/18 06:00:23;;;;;;;40.92;36.90;;;19.60;99.90;;;;;;5113987;27;20107;-39
2023/06/18 06:02:48;;;;;;;39.83;35.90;;;19.50;99.90;;;;;;5113963;27;20435;-38
2023/06/18 06:05:14;;;;;;;39.55;35.42;;;19.30;99.90;;;;;;5113952;27;20100;-39
2023/06/18 06:07:40;;;;;;;40.72;36.42;;;19.20;99.90;;;;;;5113702;27;20051;-38
2023/06/18 06:10:06;;;;;;;40.05;35.58;;;19.00;99.90;;;;;;5113612;27;20508;-39
2023/06/18 06:12:31;;;;;;;40.50;36.30;;;18.90;99.90;;;;;;5113803;27;20047;-38
2023/06/18 06:14:57;;;;;;;40.13;36.05;;;18.90;99.90;;;;;;5113095;27;20047;-38
2023/06/18 06:17:23;;;;;;;40.92;36.80;;;18.90;99.90;;;;;;5114375;27;20050;-38
2023/06/18 06:19:48;;;;;;;38.67;34.78;;;19.30;99.90;;;;;;5114180;27;20039;-43
2023/06/18 06:22:14;;;;;;;40.50;36.40;;;20.00;99.90;;;;;;5114389;27;20482;-39
2023/06/18 06:24:40;;;;;;;37.05;33.22;;;20.70;99.90;;;;;;5118214;27;20046;-39
2023/06/18 06:27:06;;;;;;;39.85;36.00;;;21.30;99.90;;;;;;5117643;27;20548;-38
2023/06/18 06:29:31;;;;;;;38.70;34.97;;;21.40;99.90;;;;;;5118406;27;20043;-39
2023/06/18 06:31:57;;;;;;;38.13;34.50;;;21.50;99.90;;;;;;5117117;27;20130;-39
2023/06/18 06:34:23;;;;;;;39.30;35.28;;;21.90;99.90;;;;;;5110421;27;20370;-38
2023/06/18 06:36:50;;;;;;;39.03;35.05;;;22.10;99.90;;;;;;5102406;27;20416;-39
2023/06/18 06:39:19;;;;;;;39.10;35.40;;;22.00;99.90;;;;;;5094556;27;20483;-38
2023/06/18 06:41:45;;;;;;;39.65;35.75;;;21.80;99.90;;;;;;5117682;27;20074;-39
2023/06/18 06:44:10;;;;;;;39.17;35.33;;;21.50;99.90;;;;;;5089598;27;20138;-39
2023/06/18 06:46:36;;;;;;;40.17;36.45;;;21.10;99.90;;;;;;5116463;27;20098;-39
2023/06/18 06:49:06;;;;;;;39.65;35.65;;;20.90;99.90;;;;;;5116779;27;20399;-38
2023/06/18 06:51:36;;;;;;;39.00;35.10;;;20.80;99.90;;;;;;5116579;27;20091;-38
2023/06/18 06:54:02;;;;;;;39.25;35.17;;;21.20;99.90;;;;;;5137739;27;20344;-38
2023/06/18 06:56:28;;;;;;;38.08;34.25;;;22.00;99.90;;;;;;5118927;27;20050;-39
2023/06/18 06:58:54;;;;;;;36.45;32.67;;;22.90;99.90;;;;;;5137344;27;20046;-39
2023/06/18 07:01:20;;;;;;;39.53;35.33;;;23.60;99.90;;;;;;5131277;27;20182;-39
2023/06/18 07:03:46;;;;;;;38.55;34.85;;;23.80;99.90;;;;;;5120837;27;20035;-39
2023/06/18 07:06:12;;;;;;;35.20;31.70;;;23.70;99.90;;;;;;5117618;27;20100;-39
2023/06/18 07:08:38;;;;;;;38.63;34.97;;;23.60;99.90;;;;;;5097578;27;20805;-39
2023/06/18 07:11:04;;;;;;;38.15;34.30;;;23.30;99.90;;;;;;5116499;27;20043;-39
2023/06/18 07:13:30;;;;;;;38.20;34.47;;;23.30;99.90;;;;;;5116224;27;20057;-39
2023/06/18 07:15:56;;;;;;;37.22;33.70;;;23.10;99.90;;;;;;5103652;27;20039;-40
2023/06/18 07:18:22;;;;;;;37.78;34.17;;;23.00;99.90;;;;;;5114370;27;20150;-39
2023/06/18 07:20:47;;;;;;;35.50;32.05;;;23.00;99.90;;;;;;5114413;27;20545;-39
2023/06/18 07:23:13;;;;;;;35.90;32.42;;;23.10;99.90;;;;;;5107331;27;20044;-39
2023/06/18 07:25:39;;;;;;;34.58;31.15;;;23.60;99.90;;;;;;5128902;27;20050;-39
2023/06/18 07:28:04;;;;;;;35.10;31.85;;;24.30;99.90;;;;;;5125827;27;20039;-41
2023/06/18 07:30:30;;;;;;;33.63;30.23;;;24.80;99.90;;;;;;5118800;27;20042;-39
2023/06/18 07:32:56;;;;;;;32.63;29.42;;;25.10;99.90;;;;;;5127263;27;20114;-39
2023/06/18 07:35:21;;;;;;;33.92;30.30;;;25.30;99.90;;;;;;5100239;27;20043;-39
2023/06/18 07:37:47;;;;;;;31.85;28.65;;;25.20;99.90;;;;;;5111644;27;20046;-39
2023/06/18 07:40:13;;;;;;;32.75;29.48;;;25.20;99.90;;;;;;5122456;27;20492;-39
2023/06/18 07:42:39;;;;;;;34.22;30.80;;;25.40;99.90;;;;;;5101084;27;20043;-39
2023/06/18 07:45:05;;;;;;;33.67;30.13;;;25.50;99.90;;;;;;5109559;27;20057;-40
2023/06/18 07:47:31;;;;;;;35.08;31.58;;;25.50;99.90;;;;;;5115528;27;20558;-40
2023/06/18 07:49:58;;;;;;;32.97;29.77;;;25.40;99.90;;;;;;5115869;27;20047;-39
2023/06/18 07:52:24;;;;;;;33.28;30.02;;;25.30;99.90;;;;;;5112829;27;20743;-39
2023/06/18 07:54:50;;;;;;;33.58;30.27;;;25.10;99.90;;;;;;5090142;27;20045;-39
2023/06/18 07:57:15;;;;;;;30.88;27.98;;;25.10;99.90;;;;;;5114542;27;20042;-39
2023/06/18 07:59:41;;;;;;;32.17;28.45;;;25.00;99.90;;;;;;5098240;27;20051;-39
2023/06/18 08:02:07;;;;;;;30.42;27.67;;;25.00;99.90;;;;;;5135283;27;20042;-39
2023/06/18 08:04:32;;;;;;;29.92;27.13;;;25.00;99.90;;;;;;5120831;27;20129;-39
2023/06/18 08:06:58;;;;;;;30.92;27.92;;;25.10;99.90;;;;;;5092740;27;20469;-39
2023/06/18 08:09:24;;;;;;;32.22;28.80;;;25.30;99.90;;;;;;5110858;27;20455;-39
2023/06/18 08:11:49;;;;;;;29.77;26.73;;;25.50;99.90;;;;;;5113773;27;20339;-40
2023/06/18 08:14:16;;;;;;;28.83;25.65;;;25.70;99.90;;;;;;5093840;27;20131;-40
2023/06/18 08:16:42;;;;;;;29.90;26.67;;;25.80;99.90;;;;;;5115270;27;20043;-40
2023/06/18 08:19:08;;;;;;;28.67;25.45;;;25.90;99.90;;;;;;5114227;27;20577;-40
2023/06/18 08:21:33;;;;;;;27.35;24.85;;;26.00;99.90;;;;;;5092145;27;20051;-40
2023/06/18 08:23:59;;;;;;;26.95;24.13;;;26.00;99.90;;;;;;5111677;27;20048;-41
2023/06/18 08:26:25;;;;;;;28.13;25.38;;;26.00;99.90;;;;;;5086420;27;20089;-41
2023/06/18 08:28:50;;;;;;;27.38;24.80;;;25.90;99.90;;;;;;5077889;27;20405;-39
2023/06/18 08:31:16;;;;;;;26.95;24.45;;;26.00;99.90;;;;;;5135411;27;20075;-39
2023/06/18 08:33:42;;;;;;;25.48;22.85;;;26.00;99.90;;;;;;5133129;27;20050;-40
2023/06/18 08:36:08;;;;;;;25.77;23.40;;;26.10;99.90;;;;;;5100540;27;20533;-40
2023/06/18 08:38:33;;;;;;;24.17;21.77;;;26.20;99.90;;;;;;5114822;27;20051;-40
2023/06/18 08:41:01;;;;;;;25.67;23.17;;;26.20;99.90;;;;;;5107397;27;20097;-39
2023/06/18 08:43:32;;;;;;;21.70;19.67;;;26.40;99.90;;;;;;5087198;27;20059;-40
2023/06/18 08:46:09;;;;;;;20.67;18.48;;;26.60;99.90;;;;;;5113205;27;20070;-40
2023/06/18 08:48:41;;;;;;;21.08;19.00;;;26.90;99.90;;;;;;5097071;27;20050;-40
2023/06/18 08:51:09;;;;;;;21.40;18.23;;;27.20;99.90;;;;;;5113829;27;20472;-40
2023/06/18 08:53:43;;;;;;;18.25;16.45;;;27.50;99.90;;;;;;5095776;27;20568;-40
2023/06/18 08:56:09;;;;;;;14.45;13.15;;;27.50;99.90;;;;;;5095815;27;20166;-40
2023/06/18 08:58:42;;;;;;;14.57;13.23;;;27.60;99.90;;;;;;5114283;27;20096;-40
2023/06/18 09:01:07;;;;;;;15.27;12.25;;;27.80;99.90;;;;;;5095630;28;20503;-40
2023/06/18 09:03:37;;;;;;;12.75;11.60;;;28.10;99.30;;;;;;5114541;27;20035;-40
2023/06/18 09:06:03;;;;;;;15.32;13.20;;;28.30;98.30;;;;;;5113958;27;20061;-40
2023/06/18 09:08:30;;;;;;;14.70;13.25;;;28.30;97.50;;;;;;5113801;27;20043;-40
2023/06/18 09:10:58;;;;;;;13.85;12.55;;;28.50;97.30;;;;;;5094570;28;20054;-41
2023/06/18 09:13:23;;;;;;;12.48;11.23;;;28.70;97.90;;;;;;5114312;27;20047;-40
2023/06/18 09:15:49;;;;;;;14.05;12.52;;;28.90;96.20;;;;;;5114257;27;20043;-40
2023/06/18 09:18:15;;;;;;;13.00;11.80;;;29.10;96.40;;;;;;5115081;27;20134;-41
2023/06/18 09:20:41;;;;;;;12.15;10.95;;;29.10;95.50;;;;;;5114057;27;20054;-40
2023/06/18 09:23:11;;;;;;;10.93;9.88;;;29.30;95.70;;;;;;5113639;27;20082;-40
2023/06/18 09:25:37;;;;;;;10.32;9.25;;;29.40;94.40;;;;;;5113103;28;20475;-40
2023/06/18 09:28:03;;;;;;;11.38;10.13;;;29.40;93.20;;;;;;5114558;27;20493;-40
2023/06/18 09:30:29;;;;;;;12.13;9.95;;;29.50;93.50;;;;;;5114163;27;20043;-40
2023/06/18 09:32:59;;;;;;;10.57;9.63;;;29.30;93.40;;;;;;5082935;28;20055;-41
2023/06/18 09:35:25;;;;;;;10.95;9.90;;;29.40;93.00;;;;;;5098271;27;20051;-40
2023/06/18 09:37:52;;;;;;;11.27;10.25;;;29.30;94.20;;;;;;5133713;27;20114;-40
2023/06/18 09:40:20;;;;;;;11.25;10.13;;;29.40;94.00;;;;;;5119298;27;20216;-41
2023/06/18 09:42:48;;;;;;;10.20;9.40;;;29.50;94.00;;;;;;5110994;27;20092;-40
2023/06/18 09:45:15;;;;;;;10.13;9.13;;;29.40;94.30;;;;;;5122326;27;20552;-40
2023/06/18 09:47:43;;;;;;;9.35;8.30;;;29.40;93.90;;;;;;5113979;27;20499;-40
2023/06/18 09:50:10;;;;;;;13.43;9.48;;;29.30;93.30;;;;;;5113225;27;20628;-41
2023/06/18 09:52:44;;;;;;;10.13;9.13;;;29.30;93.40;;;;;;5114234;27;20391;-40
2023/06/18 09:55:27;;;;;;;10.57;9.55;;;29.50;92.90;;;;;;5095572;27;20394;-40
2023/06/18 09:57:53;;;;;;;9.88;9.02;;;29.40;91.50;;;;;;5117895;27;20488;-40
2023/06/18 10:00:20;;;;;;;11.20;9.02;;;29.60;91.80;;;;;;5117742;27;20057;-41
2023/06/18 10:02:45;;;;;;;10.73;9.63;;;29.70;93.10;;;;;;5083935;27;20154;-40
2023/06/18 10:05:11;;;;;;;10.93;9.80;;;29.80;92.80;;;;;;5117839;27;20485;-41
2023/06/18 10:07:40;;;;;;;10.88;9.80;;;29.80;91.10;;;;;;5099657;27;20489;-42
2023/06/18 10:10:16;;;;;;;10.10;9.10;;;29.80;91.70;;;;;;5110925;27;20054;-40
2023/06/18 10:12:43;;;;;;;9.63;8.82;;;29.70;91.50;;;;;;5119732;27;20047;-40
2023/06/18 10:15:13;;;;;;;11.15;10.02;;;29.70;91.70;;;;;;5119753;27;20057;-41
2023/06/18 10:17:46;;;;;;;10.35;9.45;;;29.90;90.80;;;;;;5138118;27;20548;-40
2023/06/18 10:20:14;;;;;;;10.65;9.52;;;29.90;91.90;;;;;;5138353;27;20043;-41
2023/06/18 10:22:49;;;;;;;9.90;9.00;;;29.90;91.40;;;;;;5138355;27;20046;-40
2023/06/18 10:25:15;;;;;;;9.88;8.77;;;30.00;90.80;;;;;;5138118;27;20508;-41
2023/06/18 10:27:42;;;;;;;9.25;8.38;;;30.10;91.60;;;;;;5137990;27;20129;-41
2023/06/18 10:30:08;;;;;;;9.13;8.32;;;29.70;90.50;;;;;;5137268;27;20488;-40
2023/06/18 10:32:36;;;;;;;8.63;7.93;;;29.70;90.90;;;;;;5137665;27;20053;-40
2023/06/18 10:35:09;;;;;;;10.23;9.02;;;29.80;90.50;;;;;;5110559;27;20066;-41
2023/06/18 10:37:38;;;;;;;10.82;9.20;;;29.70;91.00;;;;;;5128095;27;20101;-40
2023/06/18 10:40:04;;;;;;;11.50;9.15;;;29.50;92.10;;;;;;5098306;27;20086;-41
2023/06/18 10:42:32;;;;;;;10.20;9.20;;;29.20;91.10;;;;;;5115735;27;20420;-41
2023/06/18 10:45:08;;;;;;;9.40;8.63;;;29.00;91.20;;;;;;5108675;27;20066;-40
2023/06/18 10:47:33;;;;;;;10.27;9.13;;;29.10;91.50;;;;;;5117909;27;20035;-41
2023/06/18 10:50:02;;;;;;;12.07;9.13;;;29.10;91.70;;;;;;5116765;27;20051;-40
2023/06/18 10:52:34;;;;;;;10.43;9.48;;;29.20;91.40;;;;;;5117282;27;20371;-41
2023/06/18 10:55:18;;;;;;;10.35;8.65;;;29.40;92.00;;;;;;5115895;27;20046;-40
2023/06/18 10:57:46;;;;;;;11.45;9.02;;;29.40;92.70;;;;;;5118162;27;20047;-41
2023/06/18 11:00:29;;;;;;;9.88;8.88;;;29.50;91.90;;;;;;5116807;27;20047;-41
2023/06/18 11:02:58;;;;;;;8.88;8.07;;;29.80;90.80;;;;;;5117106;27;20047;-40
2023/06/18 11:05:36;;;;;;;9.35;8.43;;;29.70;90.90;;;;;;5116163;27;20122;-41
2023/06/18 11:08:04;;;;;;;10.63;8.75;;;29.90;88.40;;;;;;5115787;27;20070;-41
2023/06/18 11:10:35;;;;;;;9.48;8.68;;;30.00;90.20;;;;;;5115875;27;20413;-40
2023/06/18 11:13:05;;;;;;;10.63;9.52;;;30.00;91.50;;;;;;5097263;27;20046;-40
2023/06/18 11:15:32;;;;;;;9.13;8.43;;;30.00;90.50;;;;;;5080484;27;20509;-41
2023/06/18 11:18:03;;;;;;;10.88;9.85;;;30.00;90.70;;;;;;5116246;27;20074;-41
2023/06/18 11:20:38;;;;;;;9.57;8.63;;;30.00;90.30;;;;;;5115712;27;20050;-40
2023/06/18 11:23:04;;;;;;;9.35;8.45;;;30.20;90.10;;;;;;5116677;27;20122;-40
2023/06/18 11:25:30;;;;;;;9.50;8.60;;;30.00;90.80;;;;;;5115476;27;20497;-40
2023/06/18 11:28:00;;;;;;;10.82;9.05;;;29.90;90.10;;;;;;5115795;27;20057;-41
2023/06/18 11:30:26;;;;;;;10.20;9.30;;;30.00;89.40;;;;;;5096078;27;21033;-40
2023/06/18 11:32:51;;;;;;;9.73;8.85;;;30.10;89.30;;;;;;5115204;27;20050;-42
2023/06/18 11:35:17;;;;;;;11.25;9.10;;;30.10;87.50;;;;;;5083109;28;20044;-41
2023/06/18 11:37:45;;;;;;;10.00;9.02;;;30.00;90.50;;;;;;5128720;27;20039;-42
2023/06/18 11:40:11;;;;;;;10.00;8.20;;;29.90;86.00;;;;;;5101505;27;20431;-40
2023/06/18 11:42:46;;;;;;;9.73;8.80;;;29.90;87.20;;;;;;5100005;27;20233;-41
2023/06/18 11:45:12;;;;;;;9.82;8.75;;;29.80;88.00;;;;;;5109437;27;20070;-41
2023/06/18 11:47:46;;;;;;;10.18;8.82;;;29.90;88.70;;;;;;5097094;27;20136;-41
2023/06/18 11:50:11;;;;;;;11.77;9.30;;;30.00;89.60;;;;;;5080273;27;20565;-40
2023/06/18 11:52:39;;;;;;;9.57;8.77;;;29.90;89.10;;;;;;5115711;27;20425;-40
2023/06/18 11:55:05;;;;;;;9.63;8.57;;;30.00;88.90;;;;;;5114523;27;20062;-41
2023/06/18 11:57:31;;;;;;;12.88;9.40;;;29.90;89.90;;;;;;5096804;27;20489;-40
2023/06/18 11:59:58;;;;;;;10.23;9.23;;;30.00;88.90;;;;;;5110626;27;20081;-40
2023/06/18 12:02:26;;;;;;;10.30;9.30;;;30.10;87.10;;;;;;5108593;27;20046;-41
2023/06/18 12:04:52;;;;;;;10.80;9.85;;;29.90;87.10;;;;;;5098329;27;20459;-40
2023/06/18 12:07:22;;;;;;;11.57;10.48;;;29.80;86.00;;;;;;5104029;27;20058;-42
2023/06/18 12:09:51;;;;;;;10.32;9.32;;;29.90;86.30;;;;;;5111473;27;20433;-41
2023/06/18 12:12:25;;;;;;;9.77;8.77;;;30.00;87.60;;;;;;5118055;27;20043;-41
2023/06/18 12:14:57;;;;;;;10.05;9.05;;;30.10;86.60;;;;;;5114747;27;20051;-41
2023/06/18 12:17:41;;;;;;;;;;;30.00;85.00;;;;;;5104811;27;20043;-40
2023/06/18 12:20:11;;;;;;;10.88;9.75;;;29.90;87.30;;;;;;5114343;27;19923;-41
2023/06/18 12:22:38;;;;;;;13.50;9.55;;;29.90;87.70;;;;;;5083771;27;20059;-40
2023/06/18 12:25:04;;;;;;;10.05;9.10;;;29.90;84.60;;;;;;5094882;27;20047;-41
2023/06/18 12:27:30;;;;;;;9.10;8.25;;;29.90;85.50;;;;;;5131209;27;20131;-41
2023/06/18 12:30:05;;;;;;;10.20;9.32;;;29.90;84.40;;;;;;5103734;27;20164;-40